sensor_id;sensor_type;location;lat;lon;timestamp;pressure;altitude;pressure_sealevel;temperature;humidity
113;BME280;45999;48.808;9.182;2023-12-14T00:01:25;97030.34;;;6.19;100.00
113;BME280;45999;48.808;9.182;2023-12-14T00:03:52;97032.56;;;6.22;100.00
113;BME280;45999;48.808;9.182;2023-12-14T00:06:18;97030.53;;;6.24;100.00
113;BME280;45999;48.808;9.182;2023-12-14T00:08:44;97030.97;;;6.21;100.00
113;BME280;45999;48.808;9.182;2023-12-14T00:11:11;97039.84;;;6.27;100.00
113;BME280;45999;48.808;9.182;2023-12-14T00:13:38;97046.50;;;6.29;100.00
113;BME280;45999;48.808;9.182;2023-12-14T00:16:04;97045.72;;;6.29;100.00
113;BME280;45999;48.808;9.182;2023-12-14T00:18:31;97049.59;;;6.26;100.00
113;BME280;45999;48.808;9.182;2023-12-14T00:20:57;97050.38;;;6.27;100.00
113;BME280;45999;48.808;9.182;2023-12-14T00:23:24;97062.94;;;6.31;100.00
113;BME280;45999;48.808;9.182;2023-12-14T00:25:50;97049.97;;;6.30;100.00
113;BME280;45999;48.808;9.182;2023-12-14T00:28:17;97052.66;;;6.23;100.00
113;BME280;45999;48.808;9.182;2023-12-14T00:30:43;97053.25;;;6.25;100.00
113;BME280;45999;48.808;9.182;2023-12-14T00:33:09;97063.00;;;6.25;100.00
113;BME280;45999;48.808;9.182;2023-12-14T00:35:36;97058.91;;;6.29;100.00
113;BME280;45999;48.808;9.182;2023-12-14T00:38:02;97064.28;;;6.16;100.00
113;BME280;45999;48.808;9.182;2023-12-14T00:40:28;97062.84;;;6.20;100.00
113;BME280;45999;48.808;9.182;2023-12-14T00:42:55;97065.28;;;6.21;100.00
113;BME280;45999;48.808;9.182;2023-12-14T00:45:21;97072.38;;;6.21;100.00
113;BME280;45999;48.808;9.182;2023-12-14T00:47:47;97074.84;;;6.16;100.00
113;BME280;45999;48.808;9.182;2023-12-14T00:50:14;97079.72;;;6.19;100.00
113;BME280;45999;48.808;9.182;2023-12-14T00:52:40;97083.78;;;6.15;100.00
113;BME280;45999;48.808;9.182;2023-12-14T00:55:07;97084.22;;;6.12;100.00
113;BME280;45999;48.808;9.182;2023-12-14T00:57:33;97086.84;;;6.12;100.00
113;BME280;45999;48.808;9.182;2023-12-14T00:59:59;97094.56;;;6.13;100.00
113;BME280;45999;48.808;9.182;2023-12-14T01:02:26;97100.03;;;6.12;100.00
113;BME280;45999;48.808;9.182;2023-12-14T01:04:52;97098.75;;;6.21;100.00
113;BME280;45999;48.808;9.182;2023-12-14T01:07:18;97101.56;;;6.26;100.00
113;BME280;45999;48.808;9.182;2023-12-14T01:09:45;97110.50;;;6.25;100.00
113;BME280;45999;48.808;9.182;2023-12-14T01:12:11;97115.78;;;6.25;100.00
113;BME280;45999;48.808;9.182;2023-12-14T01:14:37;97113.72;;;6.27;100.00
113;BME280;45999;48.808;9.182;2023-12-14T01:17:04;97116.97;;;6.29;100.00
113;BME280;45999;48.808;9.182;2023-12-14T01:19:30;97126.09;;;6.33;100.00
113;BME280;45999;48.808;9.182;2023-12-14T01:21:57;97124.44;;;6.32;100.00
113;BME280;45999;48.808;9.182;2023-12-14T01:24:23;97132.38;;;6.32;100.00
113;BME280;45999;48.808;9.182;2023-12-14T01:26:49;97131.41;;;6.26;100.00
113;BME280;45999;48.808;9.182;2023-12-14T01:29:16;97132.38;;;6.32;100.00
113;BME280;45999;48.808;9.182;2023-12-14T01:31:41;97139.28;;;6.33;100.00
113;BME280;45999;48.808;9.182;2023-12-14T01:34:07;97145.56;;;6.32;100.00
113;BME280;45999;48.808;9.182;2023-12-14T01:36:37;97144.97;;;6.30;100.00
113;BME280;45999;48.808;9.182;2023-12-14T01:39:03;97149.06;;;6.26;100.00
113;BME280;45999;48.808;9.182;2023-12-14T01:41:30;97151.28;;;6.29;100.00
113;BME280;45999;48.808;9.182;2023-12-14T01:43:57;97151.91;;;6.24;100.00
113;BME280;45999;48.808;9.182;2023-12-14T01:46:23;97158.81;;;6.25;100.00
113;BME280;45999;48.808;9.182;2023-12-14T01:48:49;97166.97;;;6.24;100.00
113;BME280;45999;48.808;9.182;2023-12-14T01:51:17;97166.97;;;6.24;100.00
113;BME280;45999;48.808;9.182;2023-12-14T01:53:43;97167.75;;;6.24;100.00
113;BME280;45999;48.808;9.182;2023-12-14T01:56:10;97164.75;;;6.21;100.00
113;BME280;45999;48.808;9.182;2023-12-14T01:58:36;97166.78;;;6.19;100.00
113;BME280;45999;48.808;9.182;2023-12-14T02:01:08;97169.84;;;6.16;100.00
113;BME280;45999;48.808;9.182;2023-12-14T02:03:44;97181.81;;;6.18;100.00
113;BME280;45999;48.808;9.182;2023-12-14T02:06:10;97185.47;;;6.17;100.00
113;BME280;45999;48.808;9.182;2023-12-14T02:08:37;97184.06;;;6.15;100.00
113;BME280;45999;48.808;9.182;2023-12-14T02:11:03;97184.28;;;6.13;100.00
113;BME280;45999;48.808;9.182;2023-12-14T02:13:29;97190.38;;;6.07;100.00
113;BME280;45999;48.808;9.182;2023-12-14T02:15:56;97195.47;;;6.02;100.00
113;BME280;45999;48.808;9.182;2023-12-14T02:18:22;97198.34;;;6.01;100.00
113;BME280;45999;48.808;9.182;2023-12-14T02:20:48;97195.09;;;5.99;100.00
113;BME280;45999;48.808;9.182;2023-12-14T02:23:15;97199.78;;;5.97;100.00
113;BME280;45999;48.808;9.182;2023-12-14T02:25:41;97198.75;;;5.98;100.00
113;BME280;45999;48.808;9.182;2023-12-14T02:28:07;97194.69;;;6.02;100.00
113;BME280;45999;48.808;9.182;2023-12-14T02:30:34;97203.19;;;6.04;100.00
113;BME280;45999;48.808;9.182;2023-12-14T02:33:00;97209.09;;;6.06;100.00
113;BME280;45999;48.808;9.182;2023-12-14T02:35:26;97212.47;;;6.13;100.00
113;BME280;45999;48.808;9.182;2023-12-14T02:37:53;97215.13;;;6.13;100.00
113;BME280;45999;48.808;9.182;2023-12-14T02:40:20;97212.84;;;6.16;100.00
113;BME280;45999;48.808;9.182;2023-12-14T02:42:46;97215.28;;;6.18;100.00
113;BME280;45999;48.808;9.182;2023-12-14T02:45:13;97211.03;;;6.17;100.00
113;BME280;45999;48.808;9.182;2023-12-14T02:47:39;97222.25;;;6.12;100.00
113;BME280;45999;48.808;9.182;2023-12-14T02:50:06;97231.78;;;6.13;100.00
113;BME280;45999;48.808;9.182;2023-12-14T02:52:32;97220.56;;;6.18;100.00
113;BME280;45999;48.808;9.182;2023-12-14T02:54:59;97227.69;;;6.17;100.00
113;BME280;45999;48.808;9.182;2023-12-14T02:57:25;97225.25;;;6.16;100.00
113;BME280;45999;48.808;9.182;2023-12-14T02:59:52;97230.34;;;6.17;100.00
113;BME280;45999;48.808;9.182;2023-12-14T03:02:18;97230.34;;;6.17;100.00
113;BME280;45999;48.808;9.182;2023-12-14T03:04:44;97239.66;;;6.20;100.00
113;BME280;45999;48.808;9.182;2023-12-14T03:07:11;97233.53;;;6.26;100.00
113;BME280;45999;48.808;9.182;2023-12-14T03:09:39;97245.69;;;6.27;100.00
113;BME280;45999;48.808;9.182;2023-12-14T03:12:08;97237.19;;;6.25;100.00
113;BME280;45999;48.808;9.182;2023-12-14T03:14:35;97238.81;;;6.26;100.00
113;BME280;45999;48.808;9.182;2023-12-14T03:17:01;97256.88;;;6.29;100.00
113;BME280;45999;48.808;9.182;2023-12-14T03:19:28;97255.84;;;6.30;100.00
113;BME280;45999;48.808;9.182;2023-12-14T03:21:54;97251.59;;;6.29;100.00
113;BME280;45999;48.808;9.182;2023-12-14T03:24:21;97261.31;;;6.28;100.00
113;BME280;45999;48.808;9.182;2023-12-14T03:26:47;97266.41;;;6.30;100.00
113;BME280;45999;48.808;9.182;2023-12-14T03:29:13;97269.41;;;6.33;100.00
113;BME280;45999;48.808;9.182;2023-12-14T03:31:40;97273.31;;;6.24;100.00
113;BME280;45999;48.808;9.182;2023-12-14T03:34:06;97276.13;;;6.29;100.00
113;BME280;45999;48.808;9.182;2023-12-14T03:36:32;97287.56;;;6.17;100.00
113;BME280;45999;48.808;9.182;2023-12-14T03:38:59;97297.28;;;6.16;100.00
113;BME280;45999;48.808;9.182;2023-12-14T03:41:25;97296.88;;;6.19;100.00
113;BME280;45999;48.808;9.182;2023-12-14T03:43:52;97299.72;;;6.24;100.00
113;BME280;45999;48.808;9.182;2023-12-14T03:46:18;97303.16;;;6.25;100.00
113;BME280;45999;48.808;9.182;2023-12-14T03:48:44;97301.13;;;6.27;100.00
113;BME280;45999;48.808;9.182;2023-12-14T03:51:11;97308.84;;;6.22;100.00
113;BME280;45999;48.808;9.182;2023-12-14T03:53:37;97307.63;;;6.24;100.00
113;BME280;45999;48.808;9.182;2023-12-14T03:56:03;97314.75;;;6.24;100.00
113;BME280;45999;48.808;9.182;2023-12-14T03:58:30;97317.16;;;6.25;100.00
113;BME280;45999;48.808;9.182;2023-12-14T04:00:56;97322.88;;;6.22;100.00
113;BME280;45999;48.808;9.182;2023-12-14T04:03:23;97317.97;;;6.26;100.00
113;BME280;45999;48.808;9.182;2023-12-14T04:05:49;97324.06;;;6.26;100.00
113;BME280;45999;48.808;9.182;2023-12-14T04:08:16;97327.31;;;6.28;100.00
113;BME280;45999;48.808;9.182;2023-12-14T04:10:42;97333.81;;;6.26;100.00
113;BME280;45999;48.808;9.182;2023-12-14T04:13:08;97342.38;;;6.21;100.00
113;BME280;45999;48.808;9.182;2023-12-14T04:15:35;97351.69;;;6.24;100.00
113;BME280;45999;48.808;9.182;2023-12-14T04:18:01;97353.28;;;6.31;100.00
113;BME280;45999;48.808;9.182;2023-12-14T04:20:27;97363.44;;;6.28;100.00
113;BME280;45999;48.808;9.182;2023-12-14T04:22:54;97356.53;;;6.27;100.00
113;BME280;45999;48.808;9.182;2023-12-14T04:25:21;97363.03;;;6.31;100.00
113;BME280;45999;48.808;9.182;2023-12-14T04:27:47;97366.28;;;6.33;100.00
113;BME280;45999;48.808;9.182;2023-12-14T04:30:13;97365.47;;;6.26;100.00
113;BME280;45999;48.808;9.182;2023-12-14T04:32:39;97376.25;;;6.18;100.00
113;BME280;45999;48.808;9.182;2023-12-14T04:35:06;97381.91;;;6.28;100.00
113;BME280;45999;48.808;9.182;2023-12-14T04:37:32;97375.84;;;6.27;100.00
113;BME280;45999;48.808;9.182;2023-12-14T04:39:59;97381.31;;;6.26;100.00
113;BME280;45999;48.808;9.182;2023-12-14T04:42:26;97378.09;;;6.24;100.00
113;BME280;45999;48.808;9.182;2023-12-14T04:44:52;97380.09;;;6.22;100.00
113;BME280;45999;48.808;9.182;2023-12-14T04:47:19;97387.00;;;6.23;100.00
113;BME280;45999;48.808;9.182;2023-12-14T04:49:45;97392.50;;;6.21;100.00
113;BME280;45999;48.808;9.182;2023-12-14T04:52:11;97395.09;;;6.28;100.00
113;BME280;45999;48.808;9.182;2023-12-14T04:54:38;97395.91;;;6.35;100.00
113;BME280;45999;48.808;9.182;2023-12-14T04:57:05;97393.69;;;6.32;100.00
113;BME280;45999;48.808;9.182;2023-12-14T04:59:32;97404.84;;;6.34;100.00
113;BME280;45999;48.808;9.182;2023-12-14T05:01:58;97406.47;;;6.35;100.00
113;BME280;45999;48.808;9.182;2023-12-14T05:04:24;97406.06;;;6.38;100.00
113;BME280;45999;48.808;9.182;2023-12-14T05:06:51;97413.53;;;6.41;100.00
113;BME280;45999;48.808;9.182;2023-12-14T05:09:17;97417.41;;;6.45;100.00
113;BME280;45999;48.808;9.182;2023-12-14T05:11:43;97420.25;;;6.43;100.00
113;BME280;45999;48.808;9.182;2023-12-14T05:14:10;97431.81;;;6.49;100.00
113;BME280;45999;48.808;9.182;2023-12-14T05:16:36;97428.75;;;6.52;100.00
113;BME280;45999;48.808;9.182;2023-12-14T05:19:02;97438.28;;;6.53;100.00
113;BME280;45999;48.808;9.182;2023-12-14T05:21:29;97436.69;;;6.52;100.00
113;BME280;45999;48.808;9.182;2023-12-14T05:23:55;97440.53;;;6.56;100.00
113;BME280;45999;48.808;9.182;2023-12-14T05:26:21;97438.88;;;6.55;100.00
113;BME280;45999;48.808;9.182;2023-12-14T05:28:48;97446.63;;;6.50;100.00
113;BME280;45999;48.808;9.182;2023-12-14T05:31:14;97455.56;;;6.55;100.00
113;BME280;45999;48.808;9.182;2023-12-14T05:33:40;97464.09;;;6.57;100.00
113;BME280;45999;48.808;9.182;2023-12-14T05:36:07;97465.91;;;6.57;100.00
113;BME280;45999;48.808;9.182;2023-12-14T05:38:38;97472.63;;;6.53;100.00
113;BME280;45999;48.808;9.182;2023-12-14T05:41:04;97477.06;;;6.59;100.00
113;BME280;45999;48.808;9.182;2023-12-14T05:43:31;97489.47;;;6.58;100.00
113;BME280;45999;48.808;9.182;2023-12-14T05:45:57;97489.50;;;6.52;100.00
113;BME280;45999;48.808;9.182;2023-12-14T05:48:24;97495.78;;;6.51;100.00
113;BME280;45999;48.808;9.182;2023-12-14T05:50:52;97497.22;;;6.53;100.00
113;BME280;45999;48.808;9.182;2023-12-14T05:53:18;97497.38;;;6.65;100.00
113;BME280;45999;48.808;9.182;2023-12-14T05:55:45;97497.59;;;6.57;100.00
113;BME280;45999;48.808;9.182;2023-12-14T05:58:11;97505.13;;;6.53;100.00
113;BME280;45999;48.808;9.182;2023-12-14T06:00:38;97504.31;;;6.53;100.00
113;BME280;45999;48.808;9.182;2023-12-14T06:03:05;97506.53;;;6.56;100.00
113;BME280;45999;48.808;9.182;2023-12-14T06:05:31;97509.38;;;6.54;100.00
113;BME280;45999;48.808;9.182;2023-12-14T06:07:58;97516.09;;;6.50;100.00
113;BME280;45999;48.808;9.182;2023-12-14T06:10:24;97512.44;;;6.45;100.00
113;BME280;45999;48.808;9.182;2023-12-14T06:12:50;97516.31;;;6.42;100.00
113;BME280;45999;48.808;9.182;2023-12-14T06:15:17;97517.94;;;6.43;100.00
113;BME280;45999;48.808;9.182;2023-12-14T06:17:43;97526.28;;;6.47;100.00
113;BME280;45999;48.808;9.182;2023-12-14T06:20:10;97534.78;;;6.49;100.00
113;BME280;45999;48.808;9.182;2023-12-14T06:22:36;97536.38;;;6.56;100.00
113;BME280;45999;48.808;9.182;2023-12-14T06:25:03;97545.72;;;6.65;100.00
113;BME280;45999;48.808;9.182;2023-12-14T06:27:30;97540.84;;;6.69;100.00
113;BME280;45999;48.808;9.182;2023-12-14T06:29:56;97546.75;;;6.64;100.00
113;BME280;45999;48.808;9.182;2023-12-14T06:32:22;97547.75;;;6.70;100.00
113;BME280;45999;48.808;9.182;2023-12-14T06:34:50;97549.78;;;6.61;100.00
113;BME280;45999;48.808;9.182;2023-12-14T06:37:16;97557.31;;;6.64;100.00
113;BME280;45999;48.808;9.182;2023-12-14T06:39:43;97557.94;;;6.60;100.00
113;BME280;45999;48.808;9.182;2023-12-14T06:42:09;97564.84;;;6.54;100.00
113;BME280;45999;48.808;9.182;2023-12-14T06:44:37;97575.81;;;6.58;100.00
113;BME280;45999;48.808;9.182;2023-12-14T06:47:03;97570.53;;;6.58;100.00
113;BME280;45999;48.808;9.182;2023-12-14T06:49:29;97585.13;;;6.60;100.00
113;BME280;45999;48.808;9.182;2023-12-14T06:51:56;97598.16;;;6.62;100.00
113;BME280;45999;48.808;9.182;2023-12-14T06:54:23;97594.09;;;6.66;100.00
113;BME280;45999;48.808;9.182;2023-12-14T06:56:49;97596.91;;;6.64;100.00
113;BME280;45999;48.808;9.182;2023-12-14T06:59:15;97608.69;;;6.75;100.00
113;BME280;45999;48.808;9.182;2023-12-14T07:01:42;97609.28;;;6.70;100.00
113;BME280;45999;48.808;9.182;2023-12-14T07:04:08;97616.81;;;6.73;100.00
113;BME280;45999;48.808;9.182;2023-12-14T07:06:35;97624.34;;;6.70;100.00
113;BME280;45999;48.808;9.182;2023-12-14T07:09:01;97633.31;;;6.69;100.00
113;BME280;45999;48.808;9.182;2023-12-14T07:11:27;97642.22;;;6.68;100.00
113;BME280;45999;48.808;9.182;2023-12-14T07:13:54;97650.13;;;6.68;100.00
113;BME280;45999;48.808;9.182;2023-12-14T07:16:20;97658.50;;;6.65;100.00
113;BME280;45999;48.808;9.182;2023-12-14T07:18:46;97659.09;;;6.67;100.00
113;BME280;45999;48.808;9.182;2023-12-14T07:21:13;97672.50;;;6.65;100.00
113;BME280;45999;48.808;9.182;2023-12-14T07:23:39;97668.81;;;6.66;100.00
113;BME280;45999;48.808;9.182;2023-12-14T07:26:05;97670.69;;;6.66;100.00
113;BME280;45999;48.808;9.182;2023-12-14T07:28:32;97679.00;;;6.63;100.00
113;BME280;45999;48.808;9.182;2023-12-14T07:30:58;97674.75;;;6.68;100.00
113;BME280;45999;48.808;9.182;2023-12-14T07:33:24;97686.72;;;6.71;100.00
113;BME280;45999;48.808;9.182;2023-12-14T07:35:51;97690.97;;;6.72;100.00
113;BME280;45999;48.808;9.182;2023-12-14T07:38:17;97681.44;;;6.77;100.00
113;BME280;45999;48.808;9.182;2023-12-14T07:40:42;97689.97;;;6.73;100.00
113;BME280;45999;48.808;9.182;2023-12-14T07:43:10;97691.81;;;6.72;100.00
113;BME280;45999;48.808;9.182;2023-12-14T07:45:36;97696.91;;;6.74;100.00
113;BME280;45999;48.808;9.182;2023-12-14T07:48:03;97697.28;;;6.71;100.00
113;BME280;45999;48.808;9.182;2023-12-14T07:50:30;97705.22;;;6.77;100.00
113;BME280;45999;48.808;9.182;2023-12-14T07:52:56;97712.75;;;6.74;100.00
113;BME280;45999;48.808;9.182;2023-12-14T07:55:22;97710.50;;;6.84;100.00
113;BME280;45999;48.808;9.182;2023-12-14T07:57:49;97707.66;;;6.92;100.00
113;BME280;45999;48.808;9.182;2023-12-14T08:00:16;97714.38;;;6.94;100.00
113;BME280;45999;48.808;9.182;2023-12-14T08:02:42;97727.78;;;6.99;100.00
113;BME280;45999;48.808;9.182;2023-12-14T08:05:08;97721.28;;;6.95;100.00
113;BME280;45999;48.808;9.182;2023-12-14T08:07:35;97726.34;;;6.97;100.00
113;BME280;45999;48.808;9.182;2023-12-14T08:10:02;97729.00;;;6.97;100.00
113;BME280;45999;48.808;9.182;2023-12-14T08:12:29;97735.91;;;6.98;100.00
113;BME280;45999;48.808;9.182;2023-12-14T08:14:55;97744.44;;;7.00;100.00
113;BME280;45999;48.808;9.182;2023-12-14T08:17:21;97753.56;;;6.97;100.00
113;BME280;45999;48.808;9.182;2023-12-14T08:19:48;97759.28;;;7.01;100.00
113;BME280;45999;48.808;9.182;2023-12-14T08:22:14;97769.44;;;7.04;100.00
113;BME280;45999;48.808;9.182;2023-12-14T08:24:43;97769.88;;;7.07;100.00
113;BME280;45999;48.808;9.182;2023-12-14T08:27:09;97772.09;;;7.10;100.00
113;BME280;45999;48.808;9.182;2023-12-14T08:29:35;97777.56;;;7.09;100.00
113;BME280;45999;48.808;9.182;2023-12-14T08:32:02;97788.56;;;7.06;100.00
113;BME280;45999;48.808;9.182;2023-12-14T08:34:29;97787.53;;;7.07;100.00
113;BME280;45999;48.808;9.182;2023-12-14T08:36:55;97788.56;;;7.12;100.00
113;BME280;45999;48.808;9.182;2023-12-14T08:39:21;97802.19;;;7.09;100.00
113;BME280;45999;48.808;9.182;2023-12-14T08:41:48;97800.56;;;7.08;100.00
113;BME280;45999;48.808;9.182;2023-12-14T08:44:15;97810.50;;;7.13;100.00
113;BME280;45999;48.808;9.182;2023-12-14T08:46:42;97823.34;;;7.22;100.00
113;BME280;45999;48.808;9.182;2023-12-14T08:49:10;97826.19;;;7.34;100.00
113;BME280;45999;48.808;9.182;2023-12-14T08:51:37;97823.94;;;7.37;100.00
113;BME280;45999;48.808;9.182;2023-12-14T08:54:04;97838.38;;;7.35;100.00
113;BME280;45999;48.808;9.182;2023-12-14T08:56:31;97841.22;;;7.33;100.00
113;BME280;45999;48.808;9.182;2023-12-14T08:58:58;97842.44;;;7.31;100.00
113;BME280;45999;48.808;9.182;2023-12-14T09:01:28;97847.72;;;7.31;100.00
113;BME280;45999;48.808;9.182;2023-12-14T09:03:55;97851.00;;;7.39;100.00
113;BME280;45999;48.808;9.182;2023-12-14T09:06:21;97855.06;;;7.42;100.00
113;BME280;45999;48.808;9.182;2023-12-14T09:08:47;97856.69;;;7.56;100.00
113;BME280;45999;48.808;9.182;2023-12-14T09:11:14;97870.13;;;7.48;100.00
113;BME280;45999;48.808;9.182;2023-12-14T09:13:41;97872.13;;;7.52;100.00
113;BME280;45999;48.808;9.182;2023-12-14T09:16:08;97872.56;;;7.56;100.00
113;BME280;45999;48.808;9.182;2023-12-14T09:18:35;97873.34;;;7.63;100.00
113;BME280;45999;48.808;9.182;2023-12-14T09:21:01;97873.56;;;7.68;100.00
113;BME280;45999;48.808;9.182;2023-12-14T09:23:28;97877.63;;;7.77;100.00
113;BME280;45999;48.808;9.182;2023-12-14T09:25:54;97880.50;;;7.69;100.00
113;BME280;45999;48.808;9.182;2023-12-14T09:28:21;97888.81;;;7.79;100.00
113;BME280;45999;48.808;9.182;2023-12-14T09:30:47;97905.50;;;7.86;100.00
113;BME280;45999;48.808;9.182;2023-12-14T09:33:14;97910.81;;;7.60;100.00
113;BME280;45999;48.808;9.182;2023-12-14T09:35:40;97914.06;;;7.55;100.00
113;BME280;45999;48.808;9.182;2023-12-14T09:38:07;97912.44;;;7.74;100.00
113;BME280;45999;48.808;9.182;2023-12-14T09:40:34;97919.75;;;7.91;100.00
113;BME280;45999;48.808;9.182;2023-12-14T09:43:00;97921.81;;;7.83;100.00
113;BME280;45999;48.808;9.182;2023-12-14T09:45:29;97924.66;;;7.94;100.00
113;BME280;45999;48.808;9.182;2023-12-14T09:48:00;97933.78;;;8.05;100.00
113;BME280;45999;48.808;9.182;2023-12-14T09:50:27;97925.63;;;8.00;100.00
113;BME280;45999;48.808;9.182;2023-12-14T09:52:54;97929.50;;;8.04;100.00
113;BME280;45999;48.808;9.182;2023-12-14T09:55:20;97930.50;;;8.16;100.00
113;BME280;45999;48.808;9.182;2023-12-14T09:57:47;97934.41;;;8.07;100.00
113;BME280;45999;48.808;9.182;2023-12-14T10:00:32;97934.38;;;8.20;100.00
113;BME280;45999;48.808;9.182;2023-12-14T10:03:31;97931.13;;;8.24;100.00
113;BME280;45999;48.808;9.182;2023-12-14T10:05:59;97930.72;;;8.34;100.00
113;BME280;45999;48.808;9.182;2023-12-14T10:08:27;97938.69;;;8.21;100.00
113;BME280;45999;48.808;9.182;2023-12-14T10:10:54;97942.31;;;8.33;100.00
113;BME280;45999;48.808;9.182;2023-12-14T10:13:35;97938.63;;;8.40;100.00
113;BME280;45999;48.808;9.182;2023-12-14T10:16:01;97952.28;;;8.37;100.00
113;BME280;45999;48.808;9.182;2023-12-14T10:18:28;97957.59;;;8.18;100.00
113;BME280;45999;48.808;9.182;2023-12-14T10:20:54;97955.16;;;8.29;100.00
113;BME280;45999;48.808;9.182;2023-12-14T10:23:22;97975.94;;;8.39;100.00
113;BME280;45999;48.808;9.182;2023-12-14T10:25:49;97970.44;;;8.40;100.00
113;BME280;45999;48.808;9.182;2023-12-14T10:28:16;97967.75;;;8.53;100.00
113;BME280;45999;48.808;9.182;2023-12-14T10:30:43;97975.91;;;8.52;100.00
113;BME280;45999;48.808;9.182;2023-12-14T10:33:09;97972.00;;;8.61;100.00
113;BME280;45999;48.808;9.182;2023-12-14T10:35:35;97974.88;;;8.53;100.00
113;BME280;45999;48.808;9.182;2023-12-14T10:38:04;97969.94;;;8.63;100.00
113;BME280;45999;48.808;9.182;2023-12-14T10:40:34;97980.16;;;8.53;100.00
113;BME280;45999;48.808;9.182;2023-12-14T10:43:03;97984.00;;;8.70;100.00
113;BME280;45999;48.808;9.182;2023-12-14T10:45:32;97988.16;;;8.40;100.00
113;BME280;45999;48.808;9.182;2023-12-14T10:48:00;97992.44;;;8.41;100.00
113;BME280;45999;48.808;9.182;2023-12-14T10:50:30;98001.81;;;8.37;100.00
113;BME280;45999;48.808;9.182;2023-12-14T10:52:57;97997.94;;;8.33;100.00
113;BME280;45999;48.808;9.182;2023-12-14T10:55:31;98007.50;;;8.40;100.00
113;BME280;45999;48.808;9.182;2023-12-14T10:57:59;98009.53;;;8.38;100.00
113;BME280;45999;48.808;9.182;2023-12-14T11:00:26;98010.78;;;8.29;100.00
113;BME280;45999;48.808;9.182;2023-12-14T11:02:54;98009.34;;;8.33;100.00
113;BME280;45999;48.808;9.182;2023-12-14T11:05:22;98018.13;;;8.34;100.00
113;BME280;45999;48.808;9.182;2023-12-14T11:08:04;98013.84;;;8.33;100.00
113;BME280;45999;48.808;9.182;2023-12-14T11:10:39;98019.53;;;8.30;100.00
113;BME280;45999;48.808;9.182;2023-12-14T11:13:08;98019.72;;;8.35;100.00
113;BME280;45999;48.808;9.182;2023-12-14T11:15:37;98011.59;;;8.43;100.00
113;BME280;45999;48.808;9.182;2023-12-14T11:25:47;98017.06;;;8.48;100.00
113;BME280;45999;48.808;9.182;2023-12-14T11:28:14;98025.00;;;8.54;100.00
113;BME280;45999;48.808;9.182;2023-12-14T11:30:43;98029.28;;;8.55;100.00
113;BME280;45999;48.808;9.182;2023-12-14T11:33:14;98030.13;;;8.49;100.00
113;BME280;45999;48.808;9.182;2023-12-14T11:35:40;98038.47;;;8.40;100.00
113;BME280;45999;48.808;9.182;2023-12-14T11:38:07;98035.44;;;8.30;100.00
113;BME280;45999;48.808;9.182;2023-12-14T11:40:47;98043.16;;;8.44;100.00
113;BME280;45999;48.808;9.182;2023-12-14T11:43:14;98052.94;;;8.50;100.00
113;BME280;45999;48.808;9.182;2023-12-14T11:45:42;98048.88;;;8.48;100.00
113;BME280;45999;48.808;9.182;2023-12-14T11:48:10;98057.00;;;8.53;100.00
113;BME280;45999;48.808;9.182;2023-12-14T11:50:41;98057.41;;;8.50;100.00
113;BME280;45999;48.808;9.182;2023-12-14T11:53:08;98060.69;;;8.58;100.00
113;BME280;45999;48.808;9.182;2023-12-14T11:55:36;98058.44;;;8.55;100.00
113;BME280;45999;48.808;9.182;2023-12-14T11:58:03;98063.72;;;8.49;100.00
113;BME280;45999;48.808;9.182;2023-12-14T12:00:31;98063.72;;;8.62;100.00
113;BME280;45999;48.808;9.182;2023-12-14T12:03:11;98066.56;;;8.67;100.00
113;BME280;45999;48.808;9.182;2023-12-14T12:08:09;98072.25;;;8.77;100.00
113;BME280;45999;48.808;9.182;2023-12-14T12:10:37;98076.97;;;8.62;100.00
113;BME280;45999;48.808;9.182;2023-12-14T12:13:09;98088.59;;;8.41;100.00
113;BME280;45999;48.808;9.182;2023-12-14T12:15:37;98083.50;;;8.40;100.00
113;BME280;45999;48.808;9.182;2023-12-14T12:18:08;98090.47;;;8.41;100.00
113;BME280;45999;48.808;9.182;2023-12-14T12:20:35;98097.38;;;8.35;100.00
113;BME280;45999;48.808;9.182;2023-12-14T12:23:02;98097.38;;;8.29;100.00
113;BME280;45999;48.808;9.182;2023-12-14T12:25:29;98096.16;;;8.25;100.00
113;BME280;45999;48.808;9.182;2023-12-14T12:27:57;98100.22;;;8.40;100.00
113;BME280;45999;48.808;9.182;2023-12-14T12:30:24;98095.75;;;8.41;100.00
113;BME280;45999;48.808;9.182;2023-12-14T12:32:51;98103.47;;;8.36;100.00
113;BME280;45999;48.808;9.182;2023-12-14T12:35:20;98103.91;;;8.39;100.00
113;BME280;45999;48.808;9.182;2023-12-14T12:37:47;98108.19;;;8.47;100.00
113;BME280;45999;48.808;9.182;2023-12-14T12:40:21;98110.41;;;8.30;100.00
113;BME280;45999;48.808;9.182;2023-12-14T12:42:49;98102.28;;;8.32;100.00
113;BME280;45999;48.808;9.182;2023-12-14T12:45:16;98099.63;;;8.32;100.00
113;BME280;45999;48.808;9.182;2023-12-14T12:47:43;98110.19;;;8.38;100.00
113;BME280;45999;48.808;9.182;2023-12-14T12:50:11;98102.47;;;8.30;100.00
113;BME280;45999;48.808;9.182;2023-12-14T12:52:37;98094.94;;;8.47;100.00
113;BME280;45999;48.808;9.182;2023-12-14T12:55:07;98102.28;;;8.25;100.00
113;BME280;45999;48.808;9.182;2023-12-14T12:57:35;98109.78;;;8.35;100.00
113;BME280;45999;48.808;9.182;2023-12-14T13:00:02;98113.47;;;8.21;100.00
113;BME280;45999;48.808;9.182;2023-12-14T13:02:32;98119.78;;;8.26;100.00
113;BME280;45999;48.808;9.182;2023-12-14T13:04:59;98117.09;;;8.20;100.00
113;BME280;45999;48.808;9.182;2023-12-14T13:07:25;98121.56;;;8.13;100.00
113;BME280;45999;48.808;9.182;2023-12-14T13:09:51;98122.53;;;7.86;100.00
113;BME280;45999;48.808;9.182;2023-12-14T13:12:18;98109.06;;;7.81;100.00
113;BME280;45999;48.808;9.182;2023-12-14T13:14:44;98119.06;;;7.79;100.00
113;BME280;45999;48.808;9.182;2023-12-14T13:17:11;98121.91;;;7.77;100.00
113;BME280;45999;48.808;9.182;2023-12-14T13:19:37;98129.00;;;7.77;100.00
113;BME280;45999;48.808;9.182;2023-12-14T13:22:03;98139.19;;;7.73;100.00
113;BME280;45999;48.808;9.182;2023-12-14T13:24:30;98133.50;;;7.76;100.00
113;BME280;45999;48.808;9.182;2023-12-14T13:26:56;98140.00;;;7.67;100.00
113;BME280;45999;48.808;9.182;2023-12-14T13:29:22;98144.06;;;7.70;100.00
113;BME280;45999;48.808;9.182;2023-12-14T13:31:49;98145.59;;;7.45;100.00